Time;durP1;ratioP1;P1;durP2;ratioP2;P2;SDS_P1;SDS_P2;PMS_P1;PMS_P2;Temp;Humidity;BMP_temperature;BMP_pressure;BME280_temperature;BME280_humidity;BME280_pressure;Samples;Min_cycle;Max_cycle;Signal;HPM_P1;HPM_P2
2021/06/20 04:32:39;;;;;;;22.63;8.40;;;24.00;99.90;;;;;;5245590;22;20505;-77
2021/06/20 04:35:06;;;;;;;24.73;9.53;;;24.10;99.90;;;;;;5002397;28;20434;-76
2021/06/20 04:37:31;;;;;;;39.97;9.43;;;24.10;99.90;;;;;;5005437;28;20440;-77
2021/06/20 04:39:57;;;;;;;28.93;8.97;;;24.10;99.90;;;;;;5004228;28;20435;-77
2021/06/20 04:42:31;;;;;;;35.17;10.20;;;24.10;99.90;;;;;;5016770;28;20584;-77
2021/06/20 04:44:57;;;;;;;17.87;8.90;;;24.10;99.90;;;;;;5034836;28;20209;-77
2021/06/20 04:47:25;;;;;;;28.50;9.50;;;24.10;99.90;;;;;;5032087;28;21021;-76
2021/06/20 04:49:52;;;;;;;37.83;8.83;;;24.20;99.90;;;;;;5015034;28;20202;-77
2021/06/20 04:52:17;;;;;;;26.30;8.90;;;24.20;99.90;;;;;;5015844;28;20473;-76
2021/06/20 04:54:52;;;;;;;23.30;8.43;;;24.20;99.90;;;;;;5015801;28;20456;-76
2021/06/20 04:57:25;;;;;;;16.10;8.07;;;24.30;99.90;;;;;;5017290;28;20175;-75
2021/06/20 04:59:53;;;;;;;15.70;7.80;;;24.40;99.90;;;;;;5030988;28;20428;-76
2021/06/20 05:02:20;;;;;;;29.87;8.57;;;24.50;99.90;;;;;;5032376;28;20479;-75
2021/06/20 05:04:45;;;;;;;27.37;8.37;;;24.50;99.90;;;;;;5034276;28;20859;-75
2021/06/20 05:07:12;;;;;;;38.33;9.97;;;24.50;99.90;;;;;;5034763;28;20480;-74
2021/06/20 05:09:38;;;;;;;26.60;8.03;;;24.70;99.90;;;;;;5026046;28;20272;-75
2021/06/20 05:12:07;;;;;;;18.40;7.40;;;24.80;99.90;;;;;;5034049;28;20682;-74
2021/06/20 05:14:37;;;;;;;23.13;7.10;;;24.80;99.90;;;;;;5030640;28;20444;-75
2021/06/20 05:17:03;;;;;;;24.43;8.20;;;24.80;99.90;;;;;;5034404;28;20409;-75
2021/06/20 05:19:29;;;;;;;30.83;7.60;;;24.90;99.90;;;;;;5030858;28;20810;-75
2021/06/20 05:21:54;;;;;;;27.17;7.03;;;24.90;99.90;;;;;;5033840;28;20206;-75
2021/06/20 05:24:20;;;;;;;23.50;7.50;;;24.90;99.90;;;;;;5030314;28;20212;-75
2021/06/20 05:26:46;;;;;;;24.13;6.70;;;24.90;99.90;;;;;;5033964;28;20559;-75
2021/06/20 05:29:12;;;;;;;31.23;6.43;;;24.90;99.90;;;;;;5032887;28;20288;-75
2021/06/20 05:31:37;;;;;;;22.70;7.03;;;24.90;99.90;;;;;;5027291;28;20717;-75
2021/06/20 05:34:03;;;;;;;12.20;6.97;;;24.80;99.90;;;;;;5031153;28;20643;-75
2021/06/20 05:36:28;;;;;;;15.47;5.90;;;24.90;99.90;;;;;;5030481;28;20663;-74
2021/06/20 05:38:54;;;;;;;17.00;6.20;;;24.80;99.90;;;;;;5031643;28;20291;-75
2021/06/20 05:41:20;;;;;;;18.87;6.23;;;24.80;99.90;;;;;;5030112;28;20217;-75
2021/06/20 05:43:45;;;;;;;13.07;5.10;;;24.80;99.90;;;;;;5033308;28;20178;-75
2021/06/20 05:46:11;;;;;;;21.60;5.83;;;24.70;99.90;;;;;;5032324;28;20209;-75
2021/06/20 05:48:36;;;;;;;13.43;6.60;;;24.60;99.90;;;;;;5033401;28;20166;-74
2021/06/20 05:51:02;;;;;;;23.27;5.40;;;24.60;99.90;;;;;;5031314;28;20198;-75
2021/06/20 05:53:27;;;;;;;13.03;5.50;;;24.50;99.90;;;;;;5029813;28;20667;-75
2021/06/20 05:55:53;;;;;;;19.70;5.80;;;24.60;99.90;;;;;;5029937;28;20189;-75
2021/06/20 05:58:18;;;;;;;13.50;5.20;;;24.80;99.90;;;;;;5032119;28;20239;-75
2021/06/20 06:00:44;;;;;;;16.50;5.30;;;24.90;99.90;;;;;;5033156;28;20737;-75
2021/06/20 06:03:10;;;;;;;12.87;5.60;;;24.90;99.90;;;;;;5028192;28;20209;-74
2021/06/20 06:05:35;;;;;;;12.60;4.90;;;25.00;99.90;;;;;;5015877;28;20206;-77
2021/06/20 06:08:01;;;;;;;8.97;4.97;;;25.10;99.90;;;;;;5031012;28;20244;-75
2021/06/20 06:10:28;;;;;;;21.43;5.53;;;25.20;99.90;;;;;;5030796;28;20651;-75
2021/06/20 06:12:54;;;;;;;11.37;5.23;;;25.30;99.90;;;;;;5030970;28;20205;-75
2021/06/20 06:15:19;;;;;;;18.30;5.00;;;25.50;99.90;;;;;;5030006;28;20440;-75
2021/06/20 06:17:45;;;;;;;13.33;6.40;;;25.90;99.90;;;;;;5031955;28;20954;-78
2021/06/20 06:20:12;;;;;;;24.63;7.57;;;26.30;99.90;;;;;;5032853;28;20170;-79
2021/06/20 06:22:37;;;;;;;21.67;8.07;;;26.70;99.90;;;;;;5032181;28;20433;-77
2021/06/20 06:25:04;;;;;;;38.07;8.53;;;26.70;99.90;;;;;;5028287;28;20486;-78
2021/06/20 06:27:30;;;;;;;29.33;7.50;;;26.80;99.90;;;;;;5033374;28;20186;-78
2021/06/20 06:29:55;;;;;;;25.83;9.50;;;26.80;99.90;;;;;;5030117;28;20436;-78
2021/06/20 06:32:21;;;;;;;25.70;8.57;;;26.80;99.90;;;;;;5027476;28;20713;-78
2021/06/20 06:34:47;;;;;;;24.90;7.73;;;26.70;99.90;;;;;;5026243;28;20186;-78
2021/06/20 06:37:13;;;;;;;19.00;6.60;;;26.70;99.90;;;;;;5032505;28;20178;-77
2021/06/20 06:39:38;;;;;;;21.83;7.70;;;26.70;99.90;;;;;;5029038;28;20440;-78
2021/06/20 06:42:04;;;;;;;18.47;7.13;;;26.80;99.90;;;;;;5033759;28;20202;-78
2021/06/20 06:44:30;;;;;;;24.13;6.50;;;26.80;99.90;;;;;;5032698;28;20644;-78
2021/06/20 06:46:56;;;;;;;21.17;7.33;;;26.70;99.90;;;;;;5026635;28;20525;-78
2021/06/20 06:49:21;;;;;;;25.33;7.40;;;26.90;99.90;;;;;;5015966;28;20183;-77
2021/06/20 06:51:48;;;;;;;24.37;7.43;;;26.80;99.90;;;;;;5027090;28;20214;-78
2021/06/20 06:54:16;;;;;;;21.80;6.30;;;26.70;99.90;;;;;;5029522;28;20181;-78
2021/06/20 06:56:42;;;;;;;13.33;6.70;;;26.90;99.90;;;;;;5028778;28;21055;-77
2021/06/20 06:59:08;;;;;;;18.90;6.90;;;26.80;99.90;;;;;;5032839;28;20417;-78
2021/06/20 07:01:34;;;;;;;24.17;7.60;;;26.80;99.90;;;;;;5031506;28;20216;-79
2021/06/20 07:03:59;;;;;;;13.83;5.77;;;26.90;99.90;;;;;;5034342;28;20693;-79
2021/06/20 07:06:25;;;;;;;28.47;5.70;;;26.90;99.90;;;;;;5031875;28;20181;-78
2021/06/20 07:08:51;;;;;;;18.50;5.80;;;26.90;99.90;;;;;;5030063;28;20193;-79
2021/06/20 07:11:16;;;;;;;14.73;5.90;;;26.60;99.90;;;;;;5032624;28;20205;-79
2021/06/20 07:13:42;;;;;;;18.57;6.23;;;26.40;99.90;;;;;;5032692;28;20181;-79
2021/06/20 07:16:07;;;;;;;16.23;6.37;;;26.30;99.90;;;;;;5034871;28;20225;-79
2021/06/20 07:18:33;;;;;;;19.33;5.07;;;26.30;99.90;;;;;;5031420;28;20542;-78
2021/06/20 07:20:59;;;;;;;16.50;5.47;;;26.30;99.90;;;;;;5034740;28;20278;-79
2021/06/20 07:23:26;;;;;;;17.60;5.80;;;26.30;99.90;;;;;;5013422;28;20194;-79
2021/06/20 07:25:51;;;;;;;13.37;5.33;;;26.30;99.90;;;;;;5031128;28;20464;-78
2021/06/20 07:28:17;;;;;;;11.47;5.50;;;26.50;99.90;;;;;;5027453;28;20458;-78
2021/06/20 07:30:48;;;;;;;18.60;6.63;;;26.70;99.90;;;;;;5014258;28;20270;-78
2021/06/20 07:33:14;;;;;;;15.30;5.53;;;26.80;99.90;;;;;;5031623;28;20213;-79
2021/06/20 07:35:39;;;;;;;13.90;5.33;;;26.90;99.90;;;;;;5039417;28;20420;-79
2021/06/20 07:38:05;;;;;;;14.27;5.70;;;26.90;99.90;;;;;;5037903;28;20193;-79
2021/06/20 07:40:30;;;;;;;19.77;5.70;;;26.80;99.90;;;;;;5033940;28;20186;-79
2021/06/20 07:42:56;;;;;;;13.30;4.53;;;26.70;99.90;;;;;;5029965;28;20220;-79
2021/06/20 07:45:21;;;;;;;12.00;4.23;;;26.50;99.90;;;;;;5023865;28;20214;-79
2021/06/20 07:47:47;;;;;;;18.07;5.10;;;26.40;99.90;;;;;;5039324;28;20236;-79
2021/06/20 07:50:13;;;;;;;14.33;5.33;;;26.40;99.90;;;;;;5037430;28;20182;-78
2021/06/20 07:52:39;;;;;;;13.50;4.67;;;26.40;99.90;;;;;;5032649;28;20194;-78
2021/06/20 07:55:06;;;;;;;10.57;4.20;;;26.30;99.90;;;;;;5033172;28;20440;-79
2021/06/20 07:57:32;;;;;;;10.13;5.00;;;26.30;99.90;;;;;;5029480;28;20449;-80
2021/06/20 07:59:58;;;;;;;11.70;4.70;;;26.30;99.90;;;;;;5036080;28;20830;-78
2021/06/20 08:02:23;;;;;;;14.33;5.20;;;26.30;99.90;;;;;;5033622;28;20452;-78
2021/06/20 08:04:49;;;;;;;21.13;6.43;;;26.20;99.90;;;;;;5036445;28;20209;-78
2021/06/20 08:07:15;;;;;;;20.70;5.97;;;26.10;99.90;;;;;;5036852;28;20193;-79
2021/06/20 08:09:41;;;;;;;11.50;5.80;;;26.20;99.90;;;;;;5034356;28;20183;-78
2021/06/20 08:12:08;;;;;;;16.73;6.07;;;26.30;99.90;;;;;;5034047;28;20456;-79
2021/06/20 08:14:34;;;;;;;18.43;6.03;;;26.30;99.90;;;;;;5013445;28;20429;-79
2021/06/20 08:17:00;;;;;;;19.17;5.53;;;26.30;99.90;;;;;;5033808;28;20466;-78
2021/06/20 08:19:26;;;;;;;14.00;5.50;;;26.20;99.90;;;;;;5035843;28;20429;-79
2021/06/20 08:21:52;;;;;;;11.43;6.37;;;26.00;99.90;;;;;;5035568;28;20475;-78
2021/06/20 08:24:17;;;;;;;9.07;5.23;;;26.10;99.90;;;;;;5021387;28;20201;-77
2021/06/20 08:26:45;;;;;;;16.03;5.67;;;26.00;99.90;;;;;;5033085;28;20189;-78
2021/06/20 08:29:11;;;;;;;18.17;6.97;;;26.10;99.90;;;;;;5013690;28;20269;-78
2021/06/20 08:31:37;;;;;;;14.37;5.90;;;26.20;99.90;;;;;;5026377;28;20460;-79
2021/06/20 08:34:02;;;;;;;22.63;6.43;;;26.10;99.90;;;;;;5030460;28;20447;-79
2021/06/20 08:36:28;;;;;;;14.97;6.37;;;26.00;99.90;;;;;;5026248;28;20229;-79
2021/06/20 08:38:54;;;;;;;15.97;6.20;;;26.00;99.90;;;;;;5029432;28;20228;-79
2021/06/20 08:41:22;;;;;;;13.63;5.93;;;26.00;99.90;;;;;;5018417;28;20201;-78
2021/06/20 08:43:49;;;;;;;19.73;5.40;;;26.00;99.90;;;;;;5023248;28;20429;-79
2021/06/20 08:46:15;;;;;;;10.03;6.20;;;26.00;99.90;;;;;;5009459;28;20885;-78
2021/06/20 08:48:40;;;;;;;13.97;5.73;;;26.00;99.90;;;;;;5026837;28;20439;-78
2021/06/20 08:51:06;;;;;;;12.00;5.00;;;26.20;99.90;;;;;;5030867;28;20201;-78
2021/06/20 08:53:32;;;;;;;18.77;6.03;;;26.30;99.90;;;;;;5034099;28;20212;-78
2021/06/20 08:55:57;;;;;;;12.43;4.27;;;26.40;99.90;;;;;;5026154;28;20194;-79
2021/06/20 08:58:27;;;;;;;13.13;5.90;;;26.50;99.90;;;;;;5027025;28;20715;-78
2021/06/20 09:00:54;;;;;;;14.00;4.80;;;26.70;99.90;;;;;;5027391;28;20182;-79
2021/06/20 09:03:20;;;;;;;16.00;5.73;;;26.60;99.90;;;;;;5020693;28;20414;-79
2021/06/20 09:06:01;;;;;;;16.47;4.90;;;26.60;99.90;;;;;;5024968;28;20480;-79
2021/06/20 09:08:27;;;;;;;9.63;4.30;;;26.60;99.90;;;;;;5026993;28;21159;-79
2021/06/20 09:10:55;;;;;;;10.53;5.00;;;26.50;99.90;;;;;;5032709;28;20478;-78
2021/06/20 09:13:20;;;;;;;11.63;5.47;;;26.50;99.90;;;;;;5037692;28;20965;-78
2021/06/20 09:15:59;;;;;;;15.50;5.83;;;26.50;99.90;;;;;;5035365;28;20464;-79
2021/06/20 09:18:24;;;;;;;13.57;3.73;;;26.40;99.90;;;;;;5033267;28;20273;-79
2021/06/20 09:20:51;;;;;;;19.93;6.10;;;26.30;99.90;;;;;;5033269;28;20555;-78
2021/06/20 09:23:18;;;;;;;12.50;4.37;;;26.30;99.90;;;;;;5034628;28;20511;-79
2021/06/20 09:25:52;;;;;;;13.07;7.17;;;26.40;99.90;;;;;;5032211;28;20668;-79
2021/06/20 09:28:17;;;;;;;16.40;5.43;;;26.50;99.90;;;;;;5030860;28;20723;-79
2021/06/20 09:30:52;;;;;;;7.17;4.77;;;26.50;99.90;;;;;;5001384;28;20473;-79
2021/06/20 09:33:19;;;;;;;10.83;5.50;;;26.70;99.90;;;;;;5029728;28;20276;-79
2021/06/20 09:35:45;;;;;;;16.40;5.20;;;26.70;99.90;;;;;;5033478;28;20928;-79
2021/06/20 09:38:17;;;;;;;13.30;5.10;;;26.70;99.90;;;;;;5030282;28;20430;-78
2021/06/20 09:40:42;;;;;;;9.07;4.17;;;26.60;99.90;;;;;;5022280;28;20190;-78
2021/06/20 09:43:13;;;;;;;12.27;4.80;;;26.60;99.90;;;;;;5031267;28;20527;-79
2021/06/20 09:45:42;;;;;;;11.60;4.43;;;26.70;99.90;;;;;;5017394;28;20717;-79
2021/06/20 09:48:08;;;;;;;14.93;4.97;;;26.80;99.90;;;;;;5033742;28;20436;-79
2021/06/20 09:50:39;;;;;;;17.70;5.53;;;26.90;99.90;;;;;;5032104;28;20448;-79
2021/06/20 09:53:06;;;;;;;8.20;4.37;;;27.00;99.90;;;;;;5032782;28;20170;-78
2021/06/20 09:55:32;;;;;;;15.90;5.20;;;27.10;99.90;;;;;;5028587;28;20425;-79
2021/06/20 09:58:00;;;;;;;13.13;6.23;;;27.10;99.90;;;;;;5033714;28;20925;-79
2021/06/20 10:00:34;;;;;;;11.33;5.73;;;27.30;99.90;;;;;;5031363;28;20182;-78
2021/06/20 10:03:00;;;;;;;12.07;5.53;;;27.40;99.90;;;;;;5034398;28;20844;-78
2021/06/20 10:05:26;;;;;;;12.43;5.87;;;27.30;99.90;;;;;;5031134;28;20555;-79
2021/06/20 10:07:52;;;;;;;13.70;5.30;;;27.20;99.90;;;;;;5035057;28;20499;-78
2021/06/20 10:10:17;;;;;;;23.00;6.67;;;27.10;99.90;;;;;;5030065;28;20654;-79
2021/06/20 10:12:43;;;;;;;16.73;5.70;;;27.10;99.90;;;;;;5032315;28;20208;-79
2021/06/20 10:15:13;;;;;;;14.40;5.60;;;27.20;99.90;;;;;;5030940;28;20193;-79
2021/06/20 10:17:43;;;;;;;20.10;5.10;;;27.00;99.90;;;;;;5034708;28;20220;-79
2021/06/20 10:20:13;;;;;;;21.57;5.30;;;26.80;99.90;;;;;;5032536;28;20437;-78
2021/06/20 10:22:44;;;;;;;14.40;5.50;;;26.70;99.90;;;;;;5030464;28;21006;-78
2021/06/20 10:25:24;;;;;;;17.03;6.27;;;26.70;99.90;;;;;;5028930;28;20469;-78
2021/06/20 10:27:59;;;;;;;14.17;5.90;;;26.70;99.90;;;;;;5033166;28;20507;-79
2021/06/20 10:30:25;;;;;;;15.73;6.20;;;26.50;99.90;;;;;;5033628;28;20503;-78
2021/06/20 10:33:01;;;;;;;12.00;4.90;;;26.50;99.90;;;;;;5026214;28;21052;-78
2021/06/20 10:35:26;;;;;;;15.13;5.00;;;26.60;99.90;;;;;;5033154;28;20669;-79
2021/06/20 10:37:53;;;;;;;15.63;5.00;;;26.70;99.90;;;;;;5032828;28;20436;-78
2021/06/20 10:40:29;;;;;;;10.90;4.47;;;26.80;99.90;;;;;;5032561;28;20193;-79
2021/06/20 10:42:56;;;;;;;19.60;6.30;;;26.70;99.90;;;;;;5029149;28;20463;-79
2021/06/20 10:45:35;;;;;;;15.97;6.13;;;26.80;99.90;;;;;;5035155;28;20460;-79
2021/06/20 10:48:19;;;;;;;12.43;4.77;;;27.00;99.90;;;;;;5032402;28;20436;-79
2021/06/20 10:50:53;;;;;;;11.40;4.77;;;27.00;99.90;;;;;;5034351;28;20416;-79
2021/06/20 10:53:20;;;;;;;11.67;5.13;;;27.00;99.90;;;;;;5031527;28;20442;-79
2021/06/20 10:55:49;;;;;;;15.83;4.70;;;27.10;99.90;;;;;;5023352;28;20412;-79
2021/06/20 10:58:34;;;;;;;10.33;4.67;;;27.10;99.90;;;;;;5013698;28;20440;-79
2021/06/20 11:01:11;;;;;;;10.30;3.90;;;27.30;99.90;;;;;;5034111;28;20432;-79
2021/06/20 11:03:38;;;;;;;9.23;3.70;;;27.70;99.90;;;;;;5032802;28;20477;-79
2021/06/20 11:06:06;;;;;;;12.70;3.67;;;27.90;99.90;;;;;;5031373;28;20495;-79
2021/06/20 11:09:02;;;;;;;7.67;3.17;;;28.20;99.90;;;;;;5030709;28;20460;-79
2021/06/20 11:11:36;;;;;;;14.33;3.83;;;28.20;99.90;;;;;;5033121;28;20818;-79
2021/06/20 11:14:07;;;;;;;5.73;3.00;;;28.40;99.90;;;;;;5033184;28;20790;-79
2021/06/20 11:16:38;;;;;;;11.33;3.13;;;28.50;99.90;;;;;;5030347;28;20468;-79
2021/06/20 11:19:23;;;;;;;5.70;2.50;;;28.60;99.90;;;;;;5032483;28;20504;-79
2021/06/20 11:22:01;;;;;;;17.23;3.43;;;28.80;99.90;;;;;;5033268;28;20862;-79
2021/06/20 11:24:28;;;;;;;14.70;3.43;;;28.90;99.90;;;;;;5031434;28;20468;-78
2021/06/20 11:27:01;;;;;;;8.63;2.40;;;29.10;99.90;;;;;;5031774;28;20447;-79
2021/06/20 11:29:39;;;;;;;5.93;3.27;;;29.60;99.90;;;;;;5034067;28;20725;-79
2021/06/20 11:32:05;;;;;;;11.83;3.00;;;29.90;99.90;;;;;;5029629;28;20455;-79
2021/06/20 11:34:31;;;;;;;10.13;2.80;;;30.10;99.90;;;;;;5030499;28;20493;-79
2021/06/20 11:36:57;;;;;;;7.53;3.20;;;30.50;99.90;;;;;;5032625;28;20456;-79
2021/06/20 11:39:23;;;;;;;10.53;4.37;;;30.80;99.90;;;;;;5032309;28;20186;-79
2021/06/20 11:41:52;;;;;;;13.30;3.53;;;30.80;99.90;;;;;;5030149;28;20208;-79
2021/06/20 11:44:19;;;;;;;8.40;3.07;;;30.80;99.90;;;;;;5033896;28;20193;-79
2021/06/20 11:46:46;;;;;;;14.70;3.70;;;30.20;99.90;;;;;;5031134;28;20437;-78
2021/06/20 11:49:15;;;;;;;7.60;2.53;;;30.00;99.90;;;;;;5012647;28;20756;-78
2021/06/20 11:51:46;;;;;;;20.20;9.50;;;30.20;99.90;;;;;;5029978;28;21091;-78
2021/06/20 11:54:17;;;;;;;9.63;3.13;;;30.40;99.90;;;;;;5033412;28;20429;-78
2021/06/20 11:56:48;;;;;;;13.13;3.07;;;30.70;99.90;;;;;;5031530;28;20413;-78
2021/06/20 11:59:25;;;;;;;13.30;3.37;;;30.90;99.90;;;;;;5024509;28;20436;-78
2021/06/20 12:01:51;;;;;;;7.83;3.07;;;30.90;99.90;;;;;;5033868;28;20452;-78
2021/06/20 12:04:21;;;;;;;10.67;3.47;;;30.70;99.90;;;;;;5031506;28;20807;-79
2021/06/20 12:06:48;;;;;;;14.80;3.63;;;30.60;99.90;;;;;;5033117;28;20170;-79
2021/06/20 12:09:14;;;;;;;18.83;4.00;;;30.50;99.90;;;;;;5012009;28;20429;-79
2021/06/20 12:11:40;;;;;;;18.73;5.40;;;30.60;99.90;;;;;;5025873;28;20455;-79
2021/06/20 12:14:06;;;;;;;14.20;3.23;;;30.90;99.90;;;;;;5030197;28;20431;-78
2021/06/20 12:16:32;;;;;;;10.47;3.23;;;31.00;99.90;;;;;;5015985;28;20401;-78
2021/06/20 12:18:58;;;;;;;17.93;3.63;;;31.00;99.90;;;;;;5031344;28;20821;-78
2021/06/20 12:21:29;;;;;;;12.17;3.27;;;31.30;99.90;;;;;;5034712;28;20453;-79
2021/06/20 12:23:57;;;;;;;11.10;4.33;;;31.40;99.90;;;;;;5034119;28;20451;-78
2021/06/20 12:26:24;;;;;;;20.33;4.67;;;31.40;99.90;;;;;;5036195;28;20555;-78
2021/06/20 12:28:51;;;;;;;13.70;3.57;;;31.40;99.90;;;;;;5035739;28;20412;-79
2021/06/20 12:31:17;;;;;;;14.57;3.20;;;31.00;99.90;;;;;;5033140;28;20456;-79
2021/06/20 12:33:42;;;;;;;10.10;3.73;;;30.90;99.90;;;;;;5031608;28;20461;-78
2021/06/20 12:36:09;;;;;;;12.77;4.07;;;31.10;99.90;;;;;;5032829;28;20601;-79
2021/06/20 12:38:35;;;;;;;12.00;3.43;;;30.90;99.90;;;;;;5036545;28;20170;-79
2021/06/20 12:41:01;;;;;;;18.83;3.93;;;30.90;99.90;;;;;;5032627;28;20823;-79
2021/06/20 12:43:28;;;;;;;11.03;3.90;;;30.70;99.90;;;;;;5036562;28;20170;-78
2021/06/20 12:46:05;;;;;;;10.70;3.43;;;30.60;99.90;;;;;;5035608;28;20911;-78
2021/06/20 12:48:41;;;;;;;19.60;3.33;;;30.30;99.90;;;;;;5037093;28;20415;-78
2021/06/20 12:51:10;;;;;;;13.03;3.90;;;30.10;99.90;;;;;;5035286;28;20460;-78
2021/06/20 12:53:38;;;;;;;19.10;4.80;;;30.10;99.90;;;;;;5033280;28;20432;-78
2021/06/20 12:56:06;;;;;;;19.47;5.00;;;30.10;99.90;;;;;;5033293;28;21018;-79
2021/06/20 12:58:32;;;;;;;24.17;4.20;;;30.00;99.90;;;;;;5017521;28;20426;-79
2021/06/20 13:01:06;;;;;;;19.03;5.73;;;30.00;99.90;;;;;;5016953;28;20811;-79
2021/06/20 13:03:33;;;;;;;29.10;10.90;;;29.90;99.90;;;;;;5033872;28;20436;-79
2021/06/20 13:06:09;;;;;;;24.27;4.73;;;29.80;99.90;;;;;;5036755;28;20461;-79
2021/06/20 13:08:34;;;;;;;19.60;5.07;;;29.90;99.90;;;;;;5033890;28;20444;-79
2021/06/20 13:11:00;;;;;;;13.20;4.23;;;29.90;99.90;;;;;;5034800;28;20509;-79
2021/06/20 13:13:26;;;;;;;17.43;3.77;;;30.00;99.90;;;;;;5030852;28;20209;-79
2021/06/20 13:15:52;;;;;;;38.90;13.10;;;30.10;99.90;;;;;;5037053;28;20474;-79
2021/06/20 13:18:17;;;;;;;15.37;5.57;;;30.30;99.90;;;;;;5015936;28;20193;-78
2021/06/20 13:20:43;;;;;;;22.60;5.43;;;30.40;99.90;;;;;;5035329;28;20552;-78
2021/06/20 13:23:10;;;;;;;20.07;4.50;;;30.50;99.90;;;;;;5017884;28;20769;-78
2021/06/20 13:25:39;;;;;;;26.30;5.00;;;30.30;99.90;;;;;;5028986;28;20272;-79
2021/06/20 13:28:05;;;;;;;21.07;5.53;;;30.20;99.90;;;;;;5034537;28;20793;-79
2021/06/20 13:30:31;;;;;;;14.90;4.33;;;30.00;99.90;;;;;;5015662;28;20533;-79
2021/06/20 13:32:56;;;;;;;31.33;14.10;;;30.20;99.90;;;;;;5035161;28;20232;-79
2021/06/20 13:35:22;;;;;;;19.50;4.57;;;30.30;99.90;;;;;;5014789;28;20263;-79
2021/06/20 13:37:48;;;;;;;55.80;40.00;;;30.40;99.90;;;;;;5034753;28;20232;-78
2021/06/20 13:40:16;;;;;;;21.03;6.00;;;30.40;99.90;;;;;;5032673;28;20872;-79
2021/06/20 13:42:43;;;;;;;26.03;6.47;;;30.40;99.90;;;;;;5035201;28;20202;-77
2021/06/20 13:45:11;;;;;;;19.10;4.47;;;30.50;99.90;;;;;;5033862;28;20985;-79
2021/06/20 13:47:37;;;;;;;16.13;4.87;;;30.30;99.90;;;;;;5034127;28;20423;-79
2021/06/20 13:50:05;;;;;;;30.53;13.30;;;30.20;99.90;;;;;;5032602;28;20450;-79
2021/06/20 13:52:30;;;;;;;34.53;10.10;;;30.20;99.90;;;;;;5035334;28;20424;-78
2021/06/20 13:55:00;;;;;;;32.93;19.57;;;30.30;99.90;;;;;;5031595;28;20536;-78
2021/06/20 13:57:27;;;;;;;27.23;5.57;;;30.60;99.90;;;;;;5035123;28;20178;-79
2021/06/20 13:59:53;;;;;;;37.50;14.07;;;30.90;99.90;;;;;;5035144;28;20412;-79
2021/06/20 14:02:20;;;;;;;22.40;8.30;;;31.00;99.90;;;;;;5032595;28;20936;-78
2021/06/20 14:04:45;;;;;;;26.90;8.00;;;31.10;99.90;;;;;;5034745;28;20569;-79
2021/06/20 14:07:12;;;;;;;22.83;5.23;;;31.00;99.90;;;;;;5005956;28;20441;-79
2021/06/20 14:09:37;;;;;;;31.07;4.63;;;31.10;99.90;;;;;;5032743;28;20176;-79
2021/06/20 14:12:04;;;;;;;35.33;4.90;;;31.10;99.90;;;;;;5031791;28;20464;-78
2021/06/20 14:14:29;;;;;;;23.30;5.20;;;30.80;99.90;;;;;;5034765;28;20182;-78
2021/06/20 14:16:55;;;;;;;38.33;6.30;;;30.50;99.90;;;;;;5033018;28;20433;-78
2021/06/20 14:19:20;;;;;;;28.03;5.90;;;30.30;99.90;;;;;;5033125;28;20205;-78
2021/06/20 14:21:47;;;;;;;20.87;5.50;;;30.30;99.90;;;;;;5035269;28;20224;-79
2021/06/20 14:24:13;;;;;;;27.20;6.20;;;30.20;99.90;;;;;;5013698;28;20294;-78
2021/06/20 14:26:39;;;;;;;18.43;5.87;;;30.20;99.90;;;;;;5030936;28;20818;-78
2021/06/20 14:29:05;;;;;;;19.70;5.13;;;30.00;99.90;;;;;;5028899;28;20808;-79
2021/06/20 14:31:31;;;;;;;22.67;5.53;;;30.00;99.90;;;;;;5034091;28;20536;-78
2021/06/20 14:33:57;;;;;;;28.07;6.30;;;29.90;99.90;;;;;;5026829;28;20220;-78
2021/06/20 14:36:22;;;;;;;26.27;5.20;;;29.80;99.90;;;;;;5034045;28;20317;-78
2021/06/20 14:38:48;;;;;;;26.17;6.27;;;29.70;99.90;;;;;;5033397;28;20678;-79
2021/06/20 14:41:14;;;;;;;29.60;6.80;;;29.70;99.90;;;;;;5029334;28;20206;-78
2021/06/20 14:43:40;;;;;;;24.23;5.10;;;29.80;99.90;;;;;;5032291;28;20186;-78
2021/06/20 14:46:05;;;;;;;33.13;6.00;;;29.60;99.90;;;;;;5034866;28;20206;-79
2021/06/20 14:48:31;;;;;;;27.60;6.73;;;29.60;99.90;;;;;;5034170;28;20194;-78
2021/06/20 14:50:57;;;;;;;29.57;6.93;;;29.60;99.90;;;;;;5029986;28;20205;-78
2021/06/20 14:53:22;;;;;;;22.73;5.73;;;29.60;99.90;;;;;;5034102;28;20170;-78
2021/06/20 14:55:48;;;;;;;17.00;4.77;;;29.60;99.90;;;;;;5030311;28;20436;-78
2021/06/20 14:58:14;;;;;;;25.40;6.50;;;29.60;99.90;;;;;;5033737;28;20209;-78
2021/06/20 15:00:43;;;;;;;27.93;5.60;;;29.60;99.90;;;;;;5011470;28;20220;-78
2021/06/20 15:03:10;;;;;;;31.37;6.20;;;29.60;99.90;;;;;;5034061;28;20452;-78
2021/06/20 15:05:35;;;;;;;26.77;5.50;;;29.60;99.90;;;;;;5031353;28;20551;-79
2021/06/20 15:08:01;;;;;;;36.87;6.03;;;29.60;99.90;;;;;;5034116;28;20432;-78
2021/06/20 15:10:26;;;;;;;20.30;4.93;;;29.60;99.90;;;;;;5028944;28;20192;-78
2021/06/20 15:12:52;;;;;;;20.43;6.10;;;29.60;99.90;;;;;;5033482;28;20746;-78
2021/06/20 15:15:18;;;;;;;20.50;4.90;;;29.50;99.90;;;;;;5033606;28;20543;-78
2021/06/20 15:17:43;;;;;;;22.77;4.90;;;29.50;99.90;;;;;;5030078;28;20221;-78
2021/06/20 15:20:10;;;;;;;31.07;5.83;;;29.50;99.90;;;;;;5033775;28;20178;-78
2021/06/20 15:22:36;;;;;;;28.87;6.30;;;29.50;99.90;;;;;;5014168;28;20268;-78
2021/06/20 15:25:04;;;;;;;31.70;6.23;;;29.50;99.90;;;;;;5030769;28;21000;-78
2021/06/20 15:27:30;;;;;;;33.07;6.97;;;29.50;99.90;;;;;;5013196;28;20436;-79
2021/06/20 15:29:55;;;;;;;19.07;5.47;;;29.50;99.90;;;;;;5033658;28;20496;-79
2021/06/20 15:32:24;;;;;;;22.43;5.57;;;29.30;99.90;;;;;;5029945;28;21023;-78
2021/06/20 15:34:51;;;;;;;28.90;7.43;;;29.30;99.90;;;;;;5024695;28;20182;-78
2021/06/20 15:37:17;;;;;;;30.03;7.07;;;29.20;99.90;;;;;;5032385;28;20409;-79
2021/06/20 15:39:47;;;;;;;22.03;6.20;;;29.10;99.90;;;;;;5033006;28;20424;-78
2021/06/20 15:42:13;;;;;;;22.33;5.47;;;29.10;99.90;;;;;;5033176;28;20449;-79
2021/06/20 15:44:38;;;;;;;30.67;6.37;;;29.10;99.90;;;;;;5030759;28;20472;-78
2021/06/20 15:47:05;;;;;;;27.47;5.90;;;29.20;99.90;;;;;;5033906;28;20857;-79
2021/06/20 15:49:31;;;;;;;33.50;5.97;;;29.20;99.90;;;;;;5032015;28;20248;-79
2021/06/20 15:51:56;;;;;;;31.60;6.40;;;29.20;99.90;;;;;;5033806;28;20436;-79
2021/06/20 15:54:23;;;;;;;21.10;5.73;;;29.30;99.90;;;;;;5033594;28;20251;-79
2021/06/20 15:56:48;;;;;;;32.53;7.60;;;29.20;99.90;;;;;;5031450;28;20240;-78
2021/06/20 15:59:14;;;;;;;34.27;6.17;;;29.20;99.90;;;;;;5033549;28;20425;-78
2021/06/20 16:01:39;;;;;;;33.33;6.20;;;29.10;99.90;;;;;;5037729;28;20208;-79
2021/06/20 16:04:05;;;;;;;30.17;6.60;;;29.10;99.90;;;;;;5036429;28;20178;-79
2021/06/20 16:06:32;;;;;;;30.93;8.07;;;29.10;99.90;;;;;;5033105;28;20214;-79
2021/06/20 16:08:58;;;;;;;20.53;6.97;;;29.10;99.90;;;;;;5019497;28;20178;-78
2021/06/20 16:11:24;;;;;;;34.27;7.10;;;29.10;99.90;;;;;;5035691;28;20460;-79
2021/06/20 16:13:51;;;;;;;31.03;6.10;;;29.00;99.90;;;;;;5036926;28;20261;-79
2021/06/20 16:16:17;;;;;;;29.07;6.47;;;28.90;99.90;;;;;;5034464;28;20582;-79
2021/06/20 16:18:42;;;;;;;31.10;6.70;;;28.90;99.90;;;;;;5035178;28;20441;-79
2021/06/20 16:21:09;;;;;;;37.07;5.90;;;28.90;99.90;;;;;;5033867;28;20206;-77
2021/06/20 16:23:35;;;;;;;30.13;6.67;;;28.90;99.90;;;;;;5037596;28;20561;-79
2021/06/20 16:26:00;;;;;;;23.13;6.63;;;28.80;99.90;;;;;;5033149;28;20484;-79
2021/06/20 16:28:27;;;;;;;29.57;7.50;;;28.80;99.90;;;;;;5036018;28;20421;-78
2021/06/20 16:30:52;;;;;;;25.23;6.20;;;28.70;99.90;;;;;;5036403;28;20685;-78
2021/06/20 16:33:18;;;;;;;31.50;6.20;;;28.60;99.90;;;;;;5026597;28;20436;-78
2021/06/20 16:35:44;;;;;;;30.87;6.77;;;28.60;99.90;;;;;;5029143;28;20190;-76
2021/06/20 16:38:09;;;;;;;27.90;5.93;;;28.60;99.90;;;;;;5023369;28;20191;-76
2021/06/20 16:40:36;;;;;;;31.70;6.80;;;28.50;99.90;;;;;;5030900;28;20190;-75
2021/06/20 16:43:02;;;;;;;34.43;8.17;;;28.40;99.90;;;;;;5030766;28;20194;-76
2021/06/20 16:45:28;;;;;;;22.50;5.70;;;28.40;99.90;;;;;;5031850;28;20460;-76
2021/06/20 16:47:53;;;;;;;32.10;6.90;;;28.40;99.90;;;;;;5028903;28;20572;-76
2021/06/20 16:50:20;;;;;;;32.70;7.00;;;28.30;99.90;;;;;;5022099;28;20444;-76
2021/06/20 16:52:46;;;;;;;38.13;7.63;;;28.30;99.90;;;;;;5013609;28;20310;-75
2021/06/20 16:55:12;;;;;;;35.33;6.10;;;28.20;99.90;;;;;;5029926;28;20447;-76
2021/06/20 16:57:38;;;;;;;30.20;6.63;;;28.20;99.90;;;;;;5013795;28;20409;-75
2021/06/20 17:00:09;;;;;;;29.07;6.07;;;28.20;99.90;;;;;;5026424;28;20447;-76
2021/06/20 17:02:35;;;;;;;26.87;5.50;;;28.20;99.90;;;;;;5033356;28;20224;-75
2021/06/20 17:05:01;;;;;;;26.80;6.43;;;28.10;99.90;;;;;;5030107;28;20977;-76
2021/06/20 17:07:26;;;;;;;21.17;6.13;;;28.10;99.90;;;;;;5032887;28;20416;-75
2021/06/20 17:09:53;;;;;;;26.50;5.80;;;28.10;99.90;;;;;;5027595;28;20302;-76